createdAt,value
2017-10-05T00:01:53.734Z,43.70
2017-10-05T00:04:21.479Z,41.80
2017-10-05T00:06:49.285Z,38.33
2017-10-05T00:09:16.855Z,41.67
2017-10-05T00:11:44.455Z,39.83
2017-10-05T00:14:11.980Z,44.10
2017-10-05T00:16:39.576Z,44.87
2017-10-05T00:19:07.138Z,36.23
2017-10-05T00:21:34.674Z,45.50
2017-10-05T00:24:02.250Z,40.67
2017-10-05T00:26:29.790Z,38.10
2017-10-05T00:28:57.597Z,42.10
2017-10-05T00:31:25.167Z,39.20
2017-10-05T00:33:52.683Z,40.07
2017-10-05T00:36:20.249Z,45.20
2017-10-05T00:38:48.140Z,40.90
2017-10-05T00:41:15.664Z,38.53
2017-10-05T00:43:43.392Z,31.93
2017-10-05T00:46:10.950Z,43.20
2017-10-05T00:48:38.733Z,36.90
2017-10-05T00:51:06.274Z,42.70
2017-10-05T00:53:34.162Z,40.03
2017-10-05T00:56:01.799Z,43.97
2017-10-05T00:58:29.357Z,43.10
2017-10-05T01:00:56.970Z,41.20
2017-10-05T01:03:24.775Z,42.23
2017-10-05T01:05:52.328Z,45.70
2017-10-05T01:08:19.900Z,37.67
2017-10-05T01:10:47.501Z,40.10
2017-10-05T01:13:15.390Z,45.23
2017-10-05T01:15:42.967Z,42.87
2017-10-05T01:18:10.512Z,39.77
2017-10-05T01:20:38.396Z,35.70
2017-10-05T01:23:06.262Z,32.43
2017-10-05T01:25:33.777Z,34.20
2017-10-05T01:28:01.567Z,38.37
2017-10-05T01:30:29.124Z,32.80
2017-10-05T01:32:56.664Z,32.47
2017-10-05T01:35:24.203Z,33.50
2017-10-05T01:37:51.759Z,39.37
2017-10-05T01:40:19.510Z,31.30
2017-10-05T01:42:47.069Z,30.03
2017-10-05T01:45:14.747Z,30.43
2017-10-05T01:47:42.282Z,27.47
2017-10-05T01:50:10.141Z,27.70
2017-10-05T01:52:38.015Z,30.57
2017-10-05T01:55:05.554Z,26.83
2017-10-05T01:57:33.299Z,27.23
2017-10-05T02:00:00.878Z,32.73
2017-10-05T02:02:28.768Z,32.17
2017-10-05T02:04:56.323Z,34.57
2017-10-05T02:07:29.181Z,30.60
2017-10-05T02:09:57.061Z,32.43
2017-10-05T02:12:28.275Z,35.50
2017-10-05T02:14:56.756Z,29.13
2017-10-05T02:17:24.283Z,36.77
2017-10-05T02:19:51.798Z,35.23
2017-10-05T02:22:19.581Z,32.37
2017-10-05T02:24:47.111Z,33.53
2017-10-05T02:27:14.853Z,38.23
2017-10-05T02:29:42.449Z,30.77
2017-10-05T02:32:10.021Z,33.23
2017-10-05T02:34:37.553Z,27.87
2017-10-05T02:37:05.324Z,31.30
2017-10-05T02:39:32.928Z,33.33
2017-10-05T02:42:00.471Z,30.50
2017-10-05T02:44:28.034Z,30.00
2017-10-05T02:46:55.584Z,26.67
2017-10-05T02:49:23.350Z,24.60
2017-10-05T02:51:50.904Z,39.87
2017-10-05T02:54:18.482Z,26.70
2017-10-05T02:56:45.991Z,29.83
2017-10-05T02:59:13.519Z,28.47
2017-10-05T03:01:41.080Z,26.87
2017-10-05T03:04:08.618Z,24.40
2017-10-05T03:06:36.142Z,25.97
2017-10-05T03:09:04.226Z,31.93
2017-10-05T03:11:31.745Z,24.27
2017-10-05T03:13:59.571Z,25.50
2017-10-05T03:16:27.151Z,25.27
2017-10-05T03:18:54.667Z,30.63
2017-10-05T03:21:22.192Z,35.97
2017-10-05T03:23:49.737Z,30.90
2017-10-05T03:26:17.284Z,28.60
2017-10-05T03:28:44.809Z,30.53
2017-10-05T03:31:12.387Z,27.60
2017-10-05T03:33:39.912Z,27.97
2017-10-05T03:36:07.500Z,35.00
2017-10-05T03:38:35.059Z,26.90
2017-10-05T03:41:02.634Z,31.30
2017-10-05T03:43:30.190Z,33.87
2017-10-05T03:45:58.044Z,31.80
2017-10-05T03:48:25.580Z,33.10
2017-10-05T03:50:53.125Z,31.57
2017-10-05T03:53:20.687Z,27.63
2017-10-05T03:55:48.295Z,29.97
2017-10-05T03:58:16.817Z,27.23
2017-10-05T04:00:44.437Z,36.53
2017-10-05T04:03:11.963Z,35.27
2017-10-05T04:05:39.485Z,34.30
2017-10-05T04:08:07.086Z,27.03
2017-10-05T04:10:34.624Z,30.73
2017-10-05T04:13:02.141Z,31.10
2017-10-05T04:15:29.922Z,30.13
2017-10-05T04:17:58.224Z,27.97
2017-10-05T04:20:26.533Z,34.23
2017-10-05T04:22:54.107Z,25.00
2017-10-05T04:25:21.651Z,30.30
2017-10-05T04:27:50.165Z,28.40
2017-10-05T04:30:17.757Z,24.13
2017-10-05T04:32:45.286Z,21.20
2017-10-05T04:35:13.030Z,30.63
2017-10-05T04:37:41.368Z,20.47
2017-10-05T04:40:09.391Z,18.07
2017-10-05T04:42:36.929Z,22.50
2017-10-05T04:45:05.329Z,17.80
2017-10-05T04:47:32.841Z,20.80
2017-10-05T04:50:00.378Z,19.37
2017-10-05T04:52:29.055Z,24.20
2017-10-05T04:54:56.896Z,30.07
2017-10-05T04:57:24.419Z,23.23
2017-10-05T04:59:51.999Z,25.63
2017-10-05T05:02:19.555Z,25.30
2017-10-05T05:04:47.310Z,29.10
2017-10-05T05:07:15.064Z,22.97
2017-10-05T05:09:42.646Z,31.17
2017-10-05T05:12:10.203Z,22.47
2017-10-05T05:14:37.727Z,26.83
2017-10-05T05:17:06.344Z,28.90
2017-10-05T05:19:33.921Z,25.67
2017-10-05T05:22:01.469Z,24.60
2017-10-05T05:24:29.039Z,26.50
2017-10-05T05:26:56.595Z,28.07
2017-10-05T05:29:25.338Z,25.10
2017-10-05T05:31:53.058Z,28.30
2017-10-05T05:34:20.616Z,28.53
2017-10-05T05:36:48.359Z,29.07
2017-10-05T05:39:15.949Z,29.20
2017-10-05T05:41:43.490Z,26.80
2017-10-05T05:44:11.294Z,27.27
2017-10-05T05:46:38.845Z,32.90
2017-10-05T05:49:06.378Z,23.07
2017-10-05T05:51:33.908Z,25.00
2017-10-05T05:54:01.510Z,27.53
2017-10-05T05:56:29.422Z,29.80
2017-10-05T05:58:57.208Z,34.27
2017-10-05T06:01:25.310Z,29.73
2017-10-05T06:03:53.164Z,27.57
2017-10-05T06:06:20.698Z,31.23
2017-10-05T06:08:48.278Z,33.30
2017-10-05T06:11:15.799Z,33.67
2017-10-05T06:13:43.628Z,33.63
2017-10-05T06:16:11.198Z,37.60
2017-10-05T06:18:38.721Z,28.17
2017-10-05T06:21:06.470Z,27.80
2017-10-05T06:23:34.037Z,27.37
2017-10-05T06:26:01.558Z,33.20
2017-10-05T06:28:29.083Z,31.00
2017-10-05T06:30:56.659Z,31.90
2017-10-05T06:33:24.216Z,28.60
2017-10-05T06:35:51.730Z,29.70
2017-10-05T06:38:19.267Z,26.33
2017-10-05T06:40:47.135Z,27.43
2017-10-05T06:43:14.696Z,30.00
2017-10-05T06:45:42.470Z,27.00
2017-10-05T06:48:10.017Z,24.70
2017-10-05T06:50:37.816Z,27.50
2017-10-05T06:53:05.371Z,25.80
2017-10-05T06:55:32.893Z,27.20
2017-10-05T06:58:00.410Z,28.23
2017-10-05T07:00:27.963Z,25.47
2017-10-05T07:02:55.893Z,27.33
2017-10-05T07:05:23.593Z,29.43
2017-10-05T07:07:51.460Z,25.50
2017-10-05T07:10:19.314Z,24.93
2017-10-05T07:12:46.856Z,24.07
2017-10-05T07:15:14.664Z,23.97
2017-10-05T07:17:42.517Z,22.50
2017-10-05T07:20:10.079Z,23.73
2017-10-05T07:22:37.904Z,25.50
2017-10-05T07:25:05.693Z,28.77
2017-10-05T07:27:33.222Z,22.60
2017-10-05T07:30:00.810Z,21.27
2017-10-05T07:32:28.383Z,19.47
2017-10-05T07:34:55.913Z,22.90
2017-10-05T07:37:23.432Z,19.77
2017-10-05T07:39:50.994Z,21.27
2017-10-05T07:42:18.840Z,27.67
2017-10-05T07:44:46.657Z,19.70
2017-10-05T07:47:14.555Z,18.13
2017-10-05T07:49:42.310Z,19.40
2017-10-05T07:52:10.076Z,17.77
2017-10-05T07:54:37.661Z,19.30
2017-10-05T07:57:05.886Z,20.43
2017-10-05T07:59:33.690Z,18.63
2017-10-05T08:02:02.001Z,20.87
2017-10-05T08:04:29.611Z,17.17
2017-10-05T08:06:57.384Z,16.93
2017-10-05T08:09:25.209Z,17.23
2017-10-05T08:11:52.780Z,20.30
2017-10-05T08:14:20.326Z,17.70
2017-10-05T08:16:48.148Z,18.30
2017-10-05T08:19:15.891Z,19.17
2017-10-05T08:21:43.494Z,18.50
2017-10-05T08:24:12.229Z,16.53
2017-10-05T08:26:40.243Z,20.60
2017-10-05T08:29:07.992Z,20.87
2017-10-05T08:31:36.514Z,20.30
2017-10-05T08:34:04.046Z,20.10
2017-10-05T08:36:31.566Z,18.13
2017-10-05T08:38:59.122Z,18.03
2017-10-05T08:41:26.661Z,17.87
2017-10-05T08:43:54.176Z,19.40
2017-10-05T08:46:22.598Z,17.93
2017-10-05T08:48:50.383Z,16.90
2017-10-05T08:51:18.369Z,16.40
2017-10-05T08:53:45.950Z,19.33
2017-10-05T08:56:13.806Z,16.30
2017-10-05T08:58:42.351Z,18.80
2017-10-05T09:01:09.911Z,23.37
2017-10-05T09:03:37.829Z,22.40
2017-10-05T09:06:05.372Z,18.27
2017-10-05T09:08:32.955Z,19.37
2017-10-05T09:11:00.473Z,21.73
2017-10-05T09:13:28.019Z,20.13
2017-10-05T09:15:55.798Z,20.70
2017-10-05T09:18:23.376Z,23.60
2017-10-05T09:20:50.901Z,22.07
2017-10-05T09:23:18.476Z,22.17
2017-10-05T09:25:46.040Z,23.13
2017-10-05T09:28:13.553Z,18.90
2017-10-05T09:30:41.152Z,18.37
2017-10-05T09:33:08.670Z,21.83
2017-10-05T09:35:36.234Z,23.40
2017-10-05T09:38:03.803Z,21.87
2017-10-05T09:40:32.447Z,21.17
2017-10-05T09:43:00.241Z,33.53
2017-10-05T09:45:27.794Z,20.07
2017-10-05T09:47:55.345Z,22.13
2017-10-05T09:50:22.855Z,21.10
2017-10-05T09:52:50.654Z,20.60
2017-10-05T09:55:18.220Z,17.20
2017-10-05T09:57:45.758Z,22.87
2017-10-05T10:00:14.165Z,18.77
2017-10-05T10:02:41.705Z,16.80
2017-10-05T10:05:09.446Z,20.10
2017-10-05T10:07:37.041Z,19.83
2017-10-05T10:10:04.635Z,17.47
2017-10-05T10:12:32.454Z,19.23
2017-10-05T10:15:00.027Z,17.60
2017-10-05T10:17:27.546Z,22.50
2017-10-05T10:19:55.339Z,24.57
2017-10-05T10:22:24.272Z,18.33
2017-10-05T10:24:52.133Z,34.90
2017-10-05T10:27:19.655Z,19.47
2017-10-05T10:29:48.020Z,12.90
2017-10-05T10:32:15.556Z,11.80
2017-10-05T10:34:43.347Z,16.73
2017-10-05T10:37:10.905Z,12.20
2017-10-05T10:39:38.474Z,12.10
2017-10-05T10:42:05.987Z,13.50
2017-10-05T10:44:33.493Z,10.60
2017-10-05T10:47:01.053Z,15.93
2017-10-05T10:49:28.571Z,17.07
2017-10-05T10:51:56.389Z,12.37
2017-10-05T10:54:23.953Z,12.50
2017-10-05T10:56:51.466Z,15.67
2017-10-05T10:59:19.101Z,10.33
2017-10-05T11:01:46.695Z,9.70
2017-10-05T11:04:14.852Z,10.73
2017-10-05T11:06:42.370Z,8.30
2017-10-05T11:09:09.973Z,10.83
2017-10-05T11:11:37.720Z,9.17
2017-10-05T11:14:05.232Z,8.00
2017-10-05T11:16:32.775Z,8.63
2017-10-05T11:19:00.284Z,12.80
2017-10-05T11:21:27.826Z,8.10
2017-10-05T11:23:55.594Z,7.70
2017-10-05T11:26:23.093Z,8.90
2017-10-05T11:28:50.604Z,13.57
2017-10-05T11:31:18.179Z,7.53
2017-10-05T11:33:47.798Z,7.30
2017-10-05T11:36:15.569Z,10.27
2017-10-05T11:38:43.120Z,6.00
2017-10-05T11:41:10.647Z,9.23
2017-10-05T11:43:38.170Z,6.67
2017-10-05T11:46:06.046Z,12.30
2017-10-05T11:48:33.587Z,7.03
2017-10-05T11:51:01.094Z,6.60
2017-10-05T11:53:29.443Z,6.63
2017-10-05T11:55:56.999Z,7.00
2017-10-05T11:58:24.795Z,6.77
2017-10-05T12:00:52.347Z,8.17
2017-10-05T12:03:20.086Z,9.20
2017-10-05T12:05:47.670Z,8.17
2017-10-05T12:08:15.939Z,10.50
2017-10-05T12:10:43.446Z,9.20
2017-10-05T12:13:10.959Z,6.73
2017-10-05T12:15:40.015Z,7.73
2017-10-05T12:18:08.070Z,8.13
2017-10-05T12:20:35.608Z,9.30
2017-10-05T12:23:03.481Z,9.80
2017-10-05T12:25:31.264Z,8.10
2017-10-05T12:27:58.832Z,10.70
2017-10-05T12:30:26.611Z,8.03
2017-10-05T12:32:54.346Z,8.67
2017-10-05T12:35:21.854Z,7.30
2017-10-05T12:37:49.495Z,7.37
2017-10-05T12:40:17.034Z,6.87
2017-10-05T12:42:44.557Z,7.03
2017-10-05T12:45:12.323Z,7.53
2017-10-05T12:47:40.041Z,7.03
2017-10-05T12:50:07.987Z,7.27
2017-10-05T12:52:35.608Z,6.50
2017-10-05T12:55:04.075Z,7.87
2017-10-05T12:57:32.014Z,7.77
2017-10-05T13:00:00.370Z,9.90
2017-10-05T13:02:28.520Z,7.10
2017-10-05T13:04:56.104Z,7.57
2017-10-05T13:07:23.650Z,8.33
2017-10-05T13:09:51.473Z,8.40
2017-10-05T13:12:20.374Z,8.80
2017-10-05T13:14:48.384Z,8.30
2017-10-05T13:17:16.019Z,7.70
2017-10-05T13:19:43.571Z,9.53
2017-10-05T13:22:11.224Z,9.73
2017-10-05T13:24:38.831Z,12.50
2017-10-05T13:27:06.452Z,9.60
2017-10-05T13:29:34.148Z,8.43
2017-10-05T13:32:01.801Z,7.07
2017-10-05T13:34:29.504Z,8.07
2017-10-05T13:36:57.310Z,6.93
2017-10-05T13:39:24.961Z,7.70
2017-10-05T13:41:53.283Z,7.10
2017-10-05T13:44:20.866Z,7.37
2017-10-05T13:46:48.723Z,6.87
2017-10-05T13:49:21.095Z,7.17
2017-10-05T13:51:50.255Z,8.07
2017-10-05T13:54:32.135Z,7.20
2017-10-05T13:56:59.697Z,7.03
2017-10-05T13:59:27.725Z,7.10
2017-10-05T14:01:56.066Z,6.63
2017-10-05T14:04:23.767Z,6.60
2017-10-05T14:06:51.675Z,7.03
2017-10-05T14:09:19.459Z,6.77
2017-10-05T14:11:47.235Z,6.53
2017-10-05T14:14:14.884Z,7.03
2017-10-05T14:16:42.960Z,7.07
2017-10-05T14:19:10.573Z,8.80
2017-10-05T14:21:38.142Z,7.00
2017-10-05T14:24:05.745Z,6.63
2017-10-05T14:26:33.401Z,6.33
2017-10-05T14:29:02.152Z,7.37
2017-10-05T14:31:30.589Z,8.03
2017-10-05T14:33:58.135Z,7.07
2017-10-05T14:36:26.302Z,10.17
2017-10-05T14:38:55.369Z,7.07
2017-10-05T14:41:22.911Z,10.23
2017-10-05T14:43:50.706Z,7.70
2017-10-05T14:46:18.377Z,11.97
2017-10-05T14:48:45.974Z,6.97
2017-10-05T14:51:13.534Z,9.80
2017-10-05T14:53:41.170Z,10.30
2017-10-05T14:56:08.939Z,7.23
2017-10-05T14:58:36.712Z,14.33
2017-10-05T15:01:04.419Z,7.80
2017-10-05T15:03:33.028Z,10.63
2017-10-05T15:06:00.627Z,8.70
2017-10-05T15:08:28.334Z,13.03
2017-10-05T15:10:56.688Z,7.50
2017-10-05T15:13:24.969Z,12.83
2017-10-05T15:15:53.199Z,12.03
2017-10-05T15:18:20.987Z,21.83
2017-10-05T15:20:49.155Z,22.40
2017-10-05T15:23:17.943Z,14.90
2017-10-05T15:25:46.433Z,34.23
2017-10-05T15:28:14.582Z,16.90
2017-10-05T15:30:42.517Z,20.70
2017-10-05T15:33:11.054Z,15.10
2017-10-05T15:35:39.177Z,14.03
2017-10-05T15:38:06.947Z,18.27
2017-10-05T15:40:34.725Z,8.40
2017-10-05T15:43:03.597Z,9.33
2017-10-05T15:45:32.869Z,11.13
2017-10-05T15:48:00.502Z,21.03
2017-10-05T15:50:28.861Z,62.13
2017-10-05T15:52:56.445Z,302.87
2017-10-05T15:55:24.317Z,200.17
2017-10-05T15:57:51.944Z,210.03
2017-10-05T16:00:19.789Z,213.70
2017-10-05T16:02:47.685Z,1999.90
2017-10-05T16:05:15.867Z,1750.40
2017-10-05T16:07:43.471Z,1999.90
2017-10-05T16:10:11.256Z,1697.70
2017-10-05T16:12:38.852Z,70.70
2017-10-05T16:15:06.822Z,23.33
2017-10-05T16:17:35.729Z,21.23
2017-10-05T16:20:03.647Z,19.80
2017-10-05T16:22:32.170Z,93.60
2017-10-05T16:24:59.677Z,12.10
2017-10-05T16:27:27.734Z,15.07
2017-10-05T16:29:55.389Z,27.60
2017-10-05T16:32:24.844Z,13.53
2017-10-05T16:34:53.747Z,17.30
2017-10-05T16:37:22.155Z,26.27
2017-10-05T16:39:50.742Z,15.10
2017-10-05T16:42:18.474Z,988.03
2017-10-05T16:44:46.842Z,857.73
2017-10-05T16:47:14.722Z,79.70
2017-10-05T16:49:42.400Z,36.13
2017-10-05T16:52:11.084Z,30.47
2017-10-05T16:54:38.810Z,31.30
2017-10-05T16:57:06.480Z,34.33
2017-10-05T16:59:34.336Z,28.90
2017-10-05T17:02:02.345Z,32.40
2017-10-05T17:04:30.205Z,22.80
2017-10-05T17:06:57.742Z,22.40
2017-10-05T17:09:25.399Z,22.57
2017-10-05T17:11:53.257Z,24.67
2017-10-05T17:14:21.652Z,22.97
2017-10-05T17:16:49.521Z,42.83
2017-10-05T17:19:17.311Z,22.83
2017-10-05T17:21:44.870Z,19.73
2017-10-05T17:24:13.995Z,23.03
2017-10-05T17:26:41.526Z,18.90
2017-10-05T17:29:09.892Z,22.17
2017-10-05T17:31:39.245Z,22.47
2017-10-05T17:34:07.455Z,18.57
2017-10-05T17:36:35.811Z,16.10
2017-10-05T17:39:05.381Z,20.10
2017-10-05T17:41:32.959Z,17.33
2017-10-05T17:44:00.890Z,21.53
2017-10-05T17:46:28.533Z,22.13
2017-10-05T17:48:56.420Z,19.40
2017-10-05T17:51:23.937Z,18.10
2017-10-05T17:53:51.905Z,17.50
2017-10-05T17:56:20.102Z,22.40
2017-10-05T17:58:47.854Z,16.90
2017-10-05T18:01:16.079Z,19.70
2017-10-05T18:03:44.584Z,26.23
2017-10-05T18:06:13.027Z,21.23
2017-10-05T18:08:40.747Z,38.77
2017-10-05T18:11:08.609Z,42.00
2017-10-05T18:13:37.405Z,49.47
2017-10-05T18:16:05.029Z,56.50
2017-10-05T18:18:32.580Z,45.83
2017-10-05T18:21:01.074Z,42.30
2017-10-05T18:23:29.601Z,32.80
2017-10-05T18:25:57.427Z,40.00
2017-10-05T18:28:25.013Z,46.00
2017-10-05T18:30:53.586Z,46.03
2017-10-05T18:33:21.096Z,49.13
2017-10-05T18:35:48.900Z,44.80
2017-10-05T18:38:16.505Z,47.20
2017-10-05T18:40:44.370Z,35.90
2017-10-05T18:43:11.909Z,49.40
2017-10-05T18:45:39.531Z,52.13
2017-10-05T18:48:07.129Z,56.43
2017-10-05T18:50:34.879Z,60.33
2017-10-05T18:53:02.435Z,47.10
2017-10-05T18:55:30.041Z,49.73
2017-10-05T18:57:57.574Z,39.77
2017-10-05T19:00:25.565Z,51.07
2017-10-05T19:02:55.019Z,47.97
2017-10-05T19:05:22.769Z,46.00
2017-10-05T19:07:50.380Z,51.90
2017-10-05T19:10:18.942Z,58.87
2017-10-05T19:12:46.489Z,51.43
2017-10-05T19:15:14.206Z,89.07
2017-10-05T19:17:41.747Z,60.33
2017-10-05T19:20:09.286Z,58.97
2017-10-05T19:22:37.407Z,53.67
2017-10-05T19:25:04.950Z,46.87
2017-10-05T19:27:33.447Z,53.67
2017-10-05T19:30:01.568Z,64.97
2017-10-05T19:32:30.436Z,49.37
2017-10-05T19:34:58.633Z,55.87
2017-10-05T19:37:26.930Z,57.60
2017-10-05T19:39:54.521Z,62.70
2017-10-05T19:42:22.535Z,69.73
2017-10-05T19:44:50.054Z,57.40
2017-10-05T19:47:17.666Z,44.60
2017-10-05T19:49:45.566Z,47.93
2017-10-05T19:52:13.324Z,42.90
2017-10-05T19:54:41.014Z,39.73
2017-10-05T19:57:08.620Z,43.73
2017-10-05T19:59:36.183Z,39.37
2017-10-05T20:02:04.429Z,37.90
2017-10-05T20:04:31.954Z,36.73
2017-10-05T20:06:59.499Z,27.80
2017-10-05T20:09:27.065Z,40.27
2017-10-05T20:11:54.604Z,38.00
2017-10-05T20:17:28.965Z,31.80
2017-10-05T20:20:11.712Z,29.60
2017-10-05T20:22:54.356Z,44.53
2017-10-05T20:28:28.272Z,44.37
2017-10-05T20:30:57.205Z,39.30
2017-10-05T20:33:25.188Z,46.97
2017-10-05T20:35:53.663Z,43.50
2017-10-05T20:38:21.266Z,48.83
2017-10-05T20:40:49.049Z,48.80
2017-10-05T20:43:16.578Z,45.93
2017-10-05T20:45:44.147Z,57.77
2017-10-05T20:48:11.907Z,56.07
2017-10-05T20:50:39.514Z,52.90
2017-10-05T20:53:07.108Z,49.37
2017-10-05T20:55:34.726Z,45.03
2017-10-05T20:58:02.274Z,41.80
2017-10-05T21:00:29.889Z,37.07
2017-10-05T21:02:57.440Z,37.10
2017-10-05T21:05:24.978Z,39.03
2017-10-05T21:07:52.757Z,53.37
2017-10-05T21:10:20.575Z,46.13
2017-10-05T21:12:49.482Z,48.03
2017-10-05T21:15:17.037Z,55.13
2017-10-05T21:17:44.559Z,49.10
2017-10-05T21:20:12.091Z,51.37
2017-10-05T21:22:39.656Z,47.23
2017-10-05T21:25:07.222Z,42.03
2017-10-05T21:27:34.744Z,55.43
2017-10-05T21:30:04.257Z,45.30
2017-10-05T21:32:32.067Z,52.43
2017-10-05T21:34:59.642Z,52.93
2017-10-05T21:37:27.241Z,44.03
2017-10-05T21:39:54.751Z,52.63
2017-10-05T21:42:23.019Z,43.67
2017-10-05T21:44:50.586Z,49.70
2017-10-05T21:47:18.112Z,45.53
2017-10-05T21:49:45.657Z,50.27
2017-10-05T21:52:14.129Z,45.67
2017-10-05T21:54:41.674Z,49.50
2017-10-05T21:57:09.263Z,47.33
2017-10-05T21:59:36.826Z,57.53
2017-10-05T22:02:04.364Z,49.30
2017-10-05T22:04:31.898Z,63.40
2017-10-05T22:06:59.717Z,70.03
2017-10-05T22:09:27.270Z,60.60
2017-10-05T22:11:54.797Z,55.13
2017-10-05T22:14:22.353Z,56.77
2017-10-05T22:16:49.924Z,53.33
2017-10-05T22:19:17.466Z,51.83
2017-10-05T22:21:45.298Z,60.27
2017-10-05T22:24:12.857Z,53.50
2017-10-05T22:26:40.389Z,61.00
2017-10-05T22:29:07.906Z,65.87
2017-10-05T22:31:35.488Z,57.03
2017-10-05T22:34:03.064Z,51.63
2017-10-05T22:36:30.610Z,53.50
2017-10-05T22:38:58.179Z,60.60
2017-10-05T22:41:25.693Z,57.03
2017-10-05T22:43:53.236Z,57.03
2017-10-05T22:46:21.020Z,56.97
2017-10-05T22:48:48.765Z,49.47
2017-10-05T22:51:16.290Z,49.47
2017-10-05T22:53:43.884Z,51.87
2017-10-05T22:56:11.412Z,59.87
2017-10-05T22:58:38.921Z,59.73
2017-10-05T23:01:06.513Z,53.77
2017-10-05T23:03:34.038Z,62.33
2017-10-05T23:06:01.597Z,60.57
2017-10-05T23:08:29.169Z,59.87
2017-10-05T23:10:56.701Z,59.53
2017-10-05T23:13:24.218Z,57.53
2017-10-05T23:15:51.787Z,59.93
2017-10-05T23:18:19.302Z,57.40
2017-10-05T23:20:46.835Z,58.03
2017-10-05T23:23:14.391Z,48.50
2017-10-05T23:25:41.929Z,50.13
2017-10-05T23:28:09.684Z,45.17
2017-10-05T23:30:37.262Z,47.30
2017-10-05T23:33:05.160Z,49.37
2017-10-05T23:35:32.702Z,44.37
2017-10-05T23:38:00.245Z,44.27
2017-10-05T23:40:27.769Z,45.10
2017-10-05T23:42:55.287Z,34.13
2017-10-05T23:45:22.882Z,37.83
2017-10-05T23:47:50.405Z,35.10
2017-10-05T23:50:17.985Z,43.90
2017-10-05T23:52:45.561Z,36.27
2017-10-05T23:55:13.098Z,35.93
2017-10-05T23:57:40.622Z,36.10
